Latest Weather Observations for Kowanyama

IDQ60801

Issued at 5:02 pm EST Tuesday 25 January 2022 (issued every 10 minutes, with the page automatically refreshed every 10 minutes)

About weather observations | Map of weather stations | Latest weather observations for QLD | Other Formats
Station Details ID: 029038 Name: KOWANYAMA AIRPORT Lat: -15.48 Lon: 141.75 Height: 9.6 m
Data from the previous 72 hours. | See also: Recent months at Kowanyama
Date/Time
EST
Temp
°C
App
Temp
°C
Dew
Point
°C
Rel
Hum
%
Delta-T
°C
Wind Press
QNH
hPa
Press
MSL
hPa
Rain since
9am
mm
Dir  Spd
km/h
Gust
km/h
Spd
kts
Gust
kts
25/05:00pm 25.7 30.3 24.8 95 0.6 NNW 9 15 5 8 1004.6 1004.5 10.2
25/04:30pm 25.8 29.8 24.4 92 1.0 NNW 11 17 6 9 1005.0 1004.9 10.0
25/04:00pm 25.8 30.8 24.8 94 0.7 N 7 11 4 6 1005.4 1005.3 9.8
25/03:30pm 25.6 30.7 24.6 94 0.7 WNW 6 7 3 4 1005.7 1005.6 9.8
25/03:00pm 25.6 28.8 24.9 96 0.5 WNW 17 24 9 13 1005.8 1005.7 9.8
25/02:30pm 25.3 28.9 24.3 94 0.7 WNW 13 20 7 11 1005.8 1005.7 9.8
25/02:26pm 25.2 28.4 24.3 95 0.6 W 15 22 8 12 1005.6 1005.5 9.8
25/02:23pm 25.1 27.8 24.2 95 0.6 W 17 22 9 12 1005.6 1005.5 9.8
25/02:13pm 25.2 26.4 23.8 92 1.0 W 24 33 13 18 1005.8 1005.7 9.6
25/02:00pm 26.1 28.4 24.1 89 1.4 W 19 26 10 14 1006.1 1006.0 3.4
25/01:59pm 26.5 29.4 24.5 89 1.4 W 17 26 9 14 1006.2 1006.1 2.2
25/01:30pm 27.0 31.2 24.8 88 1.5 WSW 11 15 6 8 1005.9 1005.8 0.0
25/01:00pm 27.4 30.5 24.1 82 2.3 SW 15 20 8 11 1006.3 1006.2 0.0
25/12:30pm 30.1 35.0 25.2 75 3.5 NW 9 13 5 7 1006.8 1006.7 0.0
25/12:00pm 30.2 35.7 25.3 75 3.5 N 6 9 3 5 1007.1 1007.0 0.0
25/11:30am 29.7 35.4 25.9 80 2.7 N 7 13 4 7 1007.3 1007.2 0.0
25/11:00am 29.0 33.6 24.8 78 2.9 NNE 9 17 5 9 1007.3 1007.2 0.0
25/10:30am 29.1 34.2 25.5 81 2.5 N 9 19 5 10 1007.5 1007.4 0.0
25/10:00am 28.5 33.6 25.5 84 2.1 NNE 9 15 5 8 1007.6 1007.5 0.0
25/09:30am 27.7 32.6 25.3 87 1.7 NNE 9 17 5 9 1007.6 1007.5 0.0
25/09:00am 26.9 31.7 25.1 90 1.3 NNE 9 15 5 8 1007.6 1007.5 2.4
25/08:30am 26.5 31.4 25.3 93 0.8 NNE 9 15 5 8 1007.3 1007.2 2.4
25/08:00am 26.4 31.3 25.2 93 0.8 NNE 9 13 5 7 1006.8 1006.7 2.4
25/07:30am 26.2 31.5 25.2 94 0.7 NE 7 13 4 7 1006.8 1006.7 2.4
25/07:00am 26.1 31.0 25.2 95 0.6 NE 9 15 5 8 1006.3 1006.2 2.4
25/06:30am 26.0 31.2 25.1 95 0.6 NE 7 11 4 6 1006.0 1005.9 2.4
25/06:00am 25.9 31.0 25.0 95 0.6 NE 7 13 4 7 1005.5 1005.4 2.4
25/05:30am 25.9 30.6 25.0 95 0.6 NNE 9 15 5 8 1005.1 1005.0 2.2
25/05:00am 26.0 31.3 25.3 96 0.5 NNE 7 9 4 5 1004.7 1004.6 2.2
25/04:30am 25.9 30.8 25.2 96 0.5 NE 9 11 5 6 1004.5 1004.4 2.0
25/04:00am 26.0 31.2 25.1 95 0.6 NNE 7 11 4 6 1004.7 1004.6 1.6
25/03:30am 26.1 31.4 25.2 95 0.6 NE 7 11 4 6 1004.6 1004.5 1.4
25/03:00am 26.2 31.5 25.3 95 0.6 NNE 7 9 4 5 1004.8 1004.7 1.2
25/02:30am 26.3 31.7 25.4 95 0.6 NE 7 11 4 6 1004.8 1004.7 1.2
25/02:00am 26.4 31.8 25.4 94 0.7 NE 7 13 4 7 1005.4 1005.3 0.6
25/01:30am 26.6 32.0 25.4 93 0.8 NE 7 11 4 6 1005.7 1005.6 0.2
25/01:00am 26.6 31.9 25.2 92 1.0 NE 7 11 4 6 1006.1 1006.0 0.0
25/12:30am 26.5 31.3 25.1 92 1.0 ENE 9 13 5 7 1006.1 1006.0 0.0
25/12:00am 26.4 31.5 25.0 92 1.0 ENE 7 11 4 6 1006.4 1006.3 0.0
 
Date/Time
EST
Temp
°C
App
Temp
°C
Dew
Point
°C
Rel
Hum
%
Delta-T
°C
Wind Press
QNH
hPa
Press
MSL
hPa
Rain since
9am
mm
Dir  Spd
km/h
Gust
km/h
Spd
kts
Gust
kts
24/11:30pm 26.5 31.4 24.7 90 1.3 ENE 7 11 4 6 1006.5 1006.4 0.0
24/11:00pm 26.8 31.9 24.6 88 1.5 E 6 7 3 4 1006.5 1006.4 0.0
24/10:30pm 27.3 32.1 24.4 84 2.0 E 7 11 4 6 1006.3 1006.2 0.0
24/10:00pm 27.6 33.3 23.8 80 2.6 CALM 0 0 0 0 1006.0 1005.9 0.0
24/09:30pm 27.5 33.4 24.1 82 2.3 CALM 0 0 0 0 1005.6 1005.5 0.0
24/09:00pm 27.7 33.0 23.7 79 2.8 NNE 2 6 1 3 1005.3 1005.2 0.0
24/08:30pm 27.9 32.1 23.5 77 3.0 N 7 9 4 5 1004.9 1004.8 0.0
24/08:00pm 28.3 31.9 23.0 73 3.6 N 9 13 5 7 1005.0 1004.9 0.0
24/07:30pm 28.5 31.4 23.2 73 3.6 N 13 20 7 11 1004.7 1004.6 0.0
24/07:00pm 28.8 32.5 24.6 78 2.9 NNW 13 19 7 10 1004.1 1004.0 0.0
24/06:30pm 29.3 33.9 24.8 77 3.1 NNW 9 15 5 8 1003.8 1003.7 0.0
24/06:00pm 29.2 33.6 25.0 78 3.0 NNW 11 17 6 9 1003.6 1003.5 0.0
24/05:30pm 29.6 34.0 25.1 77 3.2 NNW 11 17 6 9 1003.4 1003.3 0.0
24/05:00pm 30.2 34.8 24.8 73 3.8 NNW 9 15 5 8 1003.0 1002.9 0.0
24/04:30pm 30.7 34.8 24.6 70 4.3 NNW 11 17 6 9 1002.7 1002.6 0.0
24/04:00pm 31.3 34.3 23.4 63 5.5 N 13 19 7 10 1002.8 1002.7 0.0
24/03:30pm 31.1 34.4 23.2 63 5.4 N 11 15 6 8 1003.3 1003.2 0.0
24/03:00pm 32.1 36.3 24.7 65 5.2 N 11 19 6 10 1003.6 1003.5 0.0
24/02:30pm 31.8 34.5 24.1 63 5.4 N 17 24 9 13 1004.1 1004.0 0.0
24/02:00pm 31.8 36.8 25.4 69 4.5 NNE 9 15 5 8 1004.6 1004.5 0.0
24/01:30pm 31.2 35.3 24.6 68 4.6 NE 11 17 6 9 1005.1 1005.0 0.0
24/01:00pm 30.9 34.8 24.8 70 4.3 NNE 13 20 7 11 1005.6 1005.5 0.0
24/12:30pm 30.6 34.3 24.5 70 4.3 NNE 13 26 7 14 1006.1 1006.0 0.0
24/12:00pm 30.6 34.3 25.2 73 3.8 NE 15 20 8 11 1006.3 1006.2 0.0
24/11:30am 30.0 33.5 24.2 71 4.0 NE 13 20 7 11 1006.7 1006.6 0.0
24/11:00am 29.5 32.6 24.1 72 3.8 NNE 15 22 8 12 1007.2 1007.1 0.0
24/10:30am 28.8 31.5 23.5 73 3.6 NE 15 24 8 13 1007.6 1007.5 0.0
24/10:00am 28.4 31.8 24.6 80 2.7 NE 15 20 8 11 1007.9 1007.8 0.0
24/09:30am 28.0 30.9 23.8 78 2.9 NE 15 24 8 13 1008.0 1007.9 0.0
24/09:00am 27.6 30.9 23.8 80 2.6 NE 13 19 7 10 1008.1 1008.0 3.0
24/08:30am 27.2 30.5 23.9 82 2.3 NE 13 22 7 12 1007.9 1007.8 3.0
24/08:00am 26.8 31.7 24.3 86 1.7 NE 6 9 3 5 1007.7 1007.6 3.0
24/07:30am 26.4 31.3 24.4 89 1.4 NNE 6 9 3 5 1007.5 1007.4 3.0
24/07:00am 26.0 31.6 24.2 90 1.2 NNE 2 7 1 4 1007.1 1007.0 3.0
24/06:30am 25.9 30.8 24.3 91 1.1 N 6 7 3 4 1006.8 1006.7 3.0
24/06:00am 25.9 30.9 23.8 88 1.4 NNE 4 7 2 4 1006.5 1006.4 3.0
24/05:30am 25.9 30.3 23.8 88 1.4 NNE 7 9 4 5 1006.0 1005.9 3.0
24/05:00am 26.0 30.5 23.9 88 1.4 NNE 7 13 4 7 1005.8 1005.7 3.0
24/04:30am 26.0 30.7 24.0 89 1.4 NE 6 11 3 6 1005.8 1005.7 3.0
24/04:00am 26.4 30.4 23.7 85 1.9 NNE 9 15 5 8 1005.6 1005.5 2.8
24/03:30am 26.6 30.1 23.5 83 2.1 NE 11 19 6 10 1005.5 1005.4 2.8
24/03:00am 26.8 30.5 23.9 84 2.0 NE 11 17 6 9 1005.6 1005.5 2.8
24/02:30am 26.6 31.3 24.3 87 1.6 NE 7 13 4 7 1005.8 1005.7 2.8
24/02:00am 26.7 30.7 23.8 84 2.0 NE 9 13 5 7 1006.1 1006.0 2.8
24/01:30am 26.7 30.1 24.0 85 1.9 NNE 13 20 7 11 1006.3 1006.2 2.8
24/01:00am 26.6 31.9 25.2 92 1.0 NNE 7 9 4 5 1006.6 1006.5 2.8
24/12:30am 26.7 33.0 25.3 92 1.0 N 2 6 1 3 1006.9 1006.8 2.8
24/12:00am 26.7 32.6 25.3 92 1.0 NNW 4 6 2 3 1007.1 1007.0 2.8
 
Date/Time
EST
Temp
°C
App
Temp
°C
Dew
Point
°C
Rel
Hum
%
Delta-T
°C
Wind Press
QNH
hPa
Press
MSL
hPa
Rain since
9am
mm
Dir  Spd
km/h
Gust
km/h
Spd
kts
Gust
kts
23/11:30pm 26.7 32.8 25.1 91 1.1 N 2 6 1 3 1007.3 1007.2 2.8
23/11:00pm 26.7 33.1 24.9 90 1.3 CALM 0 0 0 0 1007.4 1007.3 2.8
23/10:30pm 26.7 33.1 24.9 90 1.3 CALM 0 0 0 0 1007.1 1007.0 2.8
23/10:00pm 26.8 33.4 25.2 91 1.1 CALM 0 0 0 0 1006.4 1006.3 2.8
23/09:30pm 26.8 33.3 25.0 90 1.3 CALM 0 0 0 0 1006.4 1006.3 2.8
23/09:00pm 26.9 33.3 24.9 89 1.4 CALM 0 0 0 0 1006.6 1006.5 2.8
23/08:30pm 26.6 32.2 24.8 90 1.3 N 4 7 2 4 1006.2 1006.1 2.8
23/08:00pm 26.7 31.7 24.5 88 1.5 N 6 7 3 4 1005.8 1005.7 2.8
23/07:30pm 26.4 32.2 23.9 86 1.7 CALM 0 0 0 0 1005.8 1005.7 2.8
23/07:00pm 27.1 31.7 24.2 84 2.0 NE 7 9 4 5 1006.0 1005.9 2.8
23/06:30pm 27.6 31.1 23.6 79 2.7 ENE 11 19 6 10 1005.7 1005.6 2.8
23/06:00pm 29.1 32.2 23.5 72 3.9 NNE 13 20 7 11 1005.1 1005.0 2.8
23/05:30pm 30.3 35.7 25.4 75 3.5 NNE 7 9 4 5 1004.6 1004.5 2.8
23/05:00pm 30.7 35.8 24.1 68 4.6 ESE 4 7 2 4 1003.7 1003.6 2.8
23/04:30pm 28.5 33.4 24.7 80 2.7 E 7 15 4 8 1003.9 1003.8 2.8
23/04:00pm 28.6 33.1 24.6 79 2.8 SE 9 13 5 7 1004.9 1004.8 2.4
23/03:58pm 28.5 32.0 23.6 75 3.4 SE 11 17 6 9 1004.8 1004.7 2.4
23/03:44pm 28.6 32.3 24.6 79 2.8 SSE 13 17 7 9 1004.9 1004.8 2.4
23/03:30pm 28.6 33.6 25.4 83 2.3 NNE 9 17 5 9 1004.9 1004.8 2.4
23/03:20pm 29.0 32.9 25.4 81 2.5 NE 15 33 8 18 1004.7 1004.6 0.8
23/03:00pm 32.7 37.4 25.5 66 5.1 NNW 11 17 6 9 1004.7 1004.6 0.0
23/02:30pm 33.5 37.5 24.4 59 6.4 NNE 11 17 6 9 1005.0 1004.9 0.0
23/02:00pm 33.1 37.0 24.3 60 6.2 NE 11 15 6 8 1005.3 1005.2 0.0
23/01:30pm 32.1 37.0 25.9 70 4.4 NNE 11 17 6 9 1006.0 1005.9 0.0
23/01:00pm 32.2 35.1 23.2 59 6.2 NE 13 22 7 12 1006.4 1006.3 0.0
23/12:30pm 32.2 34.9 23.4 59 6.1 NE 15 24 8 13 1006.8 1006.7 0.0
23/12:00pm 31.9 34.8 23.2 60 6.0 NE 13 20 7 11 1007.5 1007.4 0.0
23/11:30am 31.4 33.3 23.5 63 5.5 ENE 19 24 10 13 1007.8 1007.7 0.0
23/11:00am 30.4 33.2 23.6 67 4.7 NE 15 20 8 11 1007.9 1007.8 0.0
23/10:30am 30.0 32.9 23.2 67 4.7 ENE 13 20 7 11 1007.9 1007.8 0.0
23/10:00am 30.2 32.5 23.4 67 4.7 ENE 17 26 9 14 1007.9 1007.8 0.0
23/09:30am 29.9 33.2 23.8 70 4.2 ENE 13 28 7 15 1007.9 1007.8 0.0
23/09:00am 28.7 30.2 23.1 71 3.8 ENE 20 32 11 17 1007.5 1007.4 2.2
23/08:30am 28.4 31.0 23.3 74 3.5 ENE 15 28 8 15 1007.5 1007.4 2.2
23/08:00am 27.6 29.9 23.4 78 2.9 ENE 17 30 9 16 1007.3 1007.2 2.2
23/07:30am 27.0 30.1 23.5 81 2.4 E 13 20 7 11 1007.1 1007.0 2.2
23/07:00am 26.5 31.1 24.2 87 1.6 ENE 7 13 4 7 1007.3 1007.2 2.2
23/06:30am 25.9 30.6 23.9 89 1.4 E 6 9 3 5 1007.0 1006.9 2.2
23/06:00am 25.9 30.5 23.8 88 1.4 ENE 6 9 3 5 1006.8 1006.7 2.2
23/05:30am 26.1 31.2 24.0 88 1.4 NNE 4 9 2 5 1006.7 1006.6 2.2
23/05:00am 26.2 30.9 23.9 87 1.6 NE 6 9 3 5 1006.5 1006.4 2.2
23/04:30am 26.3 30.9 23.8 86 1.7 NNE 6 7 3 4 1006.6 1006.5 2.2
23/04:00am 26.5 32.2 23.8 85 1.9 CALM 0 0 0 0 1006.6 1006.5 2.2
23/03:30am 26.6 31.3 23.9 85 1.9 NNE 6 9 3 5 1006.6 1006.5 2.2
23/03:00am 26.7 31.4 24.0 85 1.9 NNE 6 7 3 4 1006.8 1006.7 2.2
23/02:30am 27.1 32.9 24.0 83 2.1 CALM 0 0 0 0 1007.1 1007.0 2.2
23/02:00am 27.3 32.9 23.5 80 2.6 CALM 0 6 0 3 1007.2 1007.1 2.2
23/01:30am 27.5 33.3 23.9 81 2.5 CALM 0 0 0 0 1007.5 1007.4 2.2
23/01:00am 27.6 31.9 23.6 79 2.8 E 7 11 4 6 1007.8 1007.7 2.2
23/12:30am 27.6 32.8 23.6 79 2.7 ENE 2 9 1 5 1008.0 1007.9 2.2
23/12:00am 27.8 33.0 23.6 78 2.9 ENE 2 6 1 3 1008.1 1008.0 2.2
 
Date/Time
EST
Temp
°C
App
Temp
°C
Dew
Point
°C
Rel
Hum
%
Delta-T
°C
Wind Press
QNH
hPa
Press
MSL
hPa
Rain since
9am
mm
Dir  Spd
km/h
Gust
km/h
Spd
kts
Gust
kts
22/11:30pm 27.9 32.2 23.3 76 3.1 NE 6 7 3 4 1008.3 1008.2 2.2
22/11:00pm 28.1 32.9 23.5 76 3.2 ENE 4 11 2 6 1007.9 1007.8 2.2
22/10:30pm 28.3 32.6 23.7 76 3.2 ENE 7 13 4 7 1007.9 1007.8 2.2
22/10:00pm 28.1 33.6 24.1 79 2.8 NE 2 11 1 6 1007.3 1007.2 2.2
22/09:30pm 27.9 33.4 24.1 80 2.6 NNE 2 6 1 3 1007.0 1006.9 2.2
22/09:00pm 28.0 33.1 24.0 79 2.8 NNE 4 6 2 3 1007.1 1007.0 2.2
22/08:30pm 28.5 32.4 23.6 75 3.4 NNE 9 11 5 6 1006.6 1006.5 2.0
22/08:00pm 29.9 33.4 23.6 69 4.4 NE 11 17 6 9 1006.3 1006.2 2.0
22/07:30pm 30.3 34.0 23.2 65 4.9 E 9 13 5 7 1006.0 1005.9 2.0
22/07:00pm 31.0 34.9 23.6 64 5.1 ESE 9 15 5 8 1005.5 1005.4 2.0
22/06:30pm 32.1 35.7 23.1 59 6.2 ENE 9 13 5 7 1005.0 1004.9 2.0
22/06:00pm 32.4 36.0 23.1 58 6.4 E 9 15 5 8 1004.7 1004.6 2.0
22/05:30pm 32.1 36.0 23.6 60 5.9 ENE 9 15 5 8 1004.6 1004.5 2.0

Other formats

Comma delimited format used in spreadsheet applications
http://www.bom.gov.au/fwo/IDQ60801/IDQ60801.94268.axf

JavaScript Object Notation format (JSON) in row-major order
http://www.bom.gov.au/fwo/IDQ60801/IDQ60801.94268.json

Data quality

Most of these data are generated automatically and are frequently updated. Quality checks on data are not normally performed. It is possible for incorrect values to appear. Refer to information at About Latest Weather Observations and please check the disclaimer before using these data.